Time;durP1;ratioP1;P1;durP2;ratioP2;P2;SDS_P1;SDS_P2;PMS_P1;PMS_P2;Temp;Humidity;BMP_temperature;BMP_pressure;BME280_temperature;BME280_humidity;BME280_pressure;Samples;Min_cycle;Max_cycle;Signal;HPM_P1;HPM_P2
2023/10/10 00:02:24;;;;;;;36.42;15.70;;;;;;;22.38;55.81;101531.25;6054109;23;20475;-80
2023/10/10 00:04:55;;;;;;;31.13;14.05;;;;;;;22.50;55.29;101544.28;6062696;23;20022;-80
2023/10/10 00:07:26;;;;;;;36.20;13.13;;;;;;;22.62;54.08;101542.72;6027765;23;20022;-80
2023/10/10 00:09:53;;;;;;;26.02;12.82;;;;;;;22.13;53.77;101451.47;6052734;23;20237;-80
2023/10/10 00:12:28;;;;;;;26.83;13.57;;;;;;;22.63;53.97;101539.00;6058613;23;20477;-80
2023/10/10 00:15:01;;;;;;;34.22;12.63;;;;;;;22.76;54.33;101566.19;6002292;23;20022;-79
2023/10/10 00:17:34;;;;;;;27.90;13.13;;;;;;;22.76;54.40;101566.19;6050308;23;20033;-80
2023/10/10 00:22:57;;;;;;;27.45;12.48;;;;;;;22.51;54.16;101529.72;6050683;23;20584;-79
2023/10/10 00:25:30;;;;;;;22.30;11.90;;;;;;;22.38;54.14;101498.81;6041704;23;20019;-79
2023/10/10 00:28:18;;;;;;;24.38;11.88;;;;;;;22.80;53.44;101559.38;6013248;23;20022;-81
2023/10/10 00:30:45;;;;;;;25.75;11.45;;;;;;;22.73;53.08;101539.50;6005962;23;20022;-79
2023/10/10 00:33:16;;;;;;;24.92;11.20;;;;;;;22.74;53.49;101538.47;6049792;23;20074;-80
2023/10/10 00:35:47;;;;;;;24.85;11.45;;;;;;;22.53;54.05;101512.25;6053094;23;20018;-81
2023/10/10 00:38:19;;;;;;;25.20;10.40;;;;;;;22.63;54.42;101533.59;6031257;23;20034;-81
2023/10/10 00:40:49;;;;;;;25.77;13.05;;;;;;;22.33;54.27;101489.56;6060393;23;20023;-80
2023/10/10 00:43:24;;;;;;;20.38;11.98;;;;;;;22.39;54.50;101514.00;6056659;23;20030;-78
2023/10/10 00:45:57;;;;;;;;;;;;;;;22.60;55.14;101561.03;6042806;23;20049;-79
2023/10/10 00:48:29;;;;;;;26.83;12.07;;;;;;;22.63;54.83;101562.53;6060652;23;19921;-81
2023/10/10 00:51:08;;;;;;;32.63;13.25;;;;;;;22.34;55.44;101535.38;6066349;23;20098;-80
2023/10/10 00:53:41;;;;;;;27.92;13.48;;;;;;;22.52;55.70;101574.69;6063828;23;20085;-80
2023/10/10 00:56:08;;;;;;;27.58;12.68;;;;;;;21.87;55.53;101468.22;6069110;23;20018;-79
2023/10/10 00:58:37;;;;;;;33.65;13.93;;;;;;;22.39;56.42;101565.41;6062408;23;20597;-79
2023/10/10 01:01:14;;;;;;;26.58;15.32;;;;;;;22.39;56.81;101573.50;6048917;23;20330;-79
2023/10/10 01:03:46;;;;;;;32.67;15.77;;;;;;;22.35;57.04;101566.78;6055849;23;20335;-80
2023/10/10 01:06:31;;;;;;;46.85;17.63;;;;;;;22.26;57.44;101546.31;6081148;23;20109;-79
2023/10/10 01:09:20;;;;;;;38.20;17.73;;;;;;;22.33;57.48;101571.59;6038490;23;20038;-78
2023/10/10 01:11:51;;;;;;;31.10;14.95;;;;;;;21.59;57.54;101450.03;6050298;23;20030;-80
2023/10/10 01:14:26;;;;;;;38.33;15.25;;;;;;;22.31;57.42;101562.81;6048286;23;20042;-80
2023/10/10 01:16:58;;;;;;;27.43;14.33;;;;;;;22.20;57.49;101552.47;6050288;23;20305;-79
2023/10/10 01:19:31;;;;;;;29.73;14.65;;;;;;;22.11;57.36;101545.47;6033243;23;20466;-79
2023/10/10 01:21:59;;;;;;;31.27;13.77;;;;;;;22.17;57.00;101556.38;6047883;23;20019;-78
2023/10/10 01:24:26;;;;;;;27.80;13.95;;;;;;;21.74;57.31;101488.66;6036027;23;20085;-80
2023/10/10 01:26:53;;;;;;;29.75;13.18;;;;;;;22.15;57.09;101557.59;6042732;23;20073;-80
2023/10/10 01:31:53;;;;;;;26.48;12.10;;;;;;;21.86;56.23;101521.47;6061492;23;20050;-78
2023/10/10 01:34:31;;;;;;;26.00;12.40;;;;;;;21.86;56.46;101524.16;6075965;23;20030;-79
2023/10/10 01:37:20;;;;;;;23.27;11.50;;;;;;;21.72;56.10;101481.78;6067785;23;20027;-80
2023/10/10 01:42:43;;;;;;;;;;;;;;;21.76;56.38;101499.31;5994318;23;20269;-81
2023/10/10 01:45:18;;;;;;;25.33;11.15;;;;;;;21.96;55.86;101532.81;6014480;23;20108;-80
2023/10/10 01:48:08;;;;;;;26.73;11.38;;;;;;;22.05;55.90;101551.66;5989624;23;20089;-80
2023/10/10 01:50:35;;;;;;;16.75;10.30;;;;;;;21.90;55.79;101530.06;6038992;23;20462;-79
2023/10/10 01:53:10;;;;;;;26.65;11.38;;;;;;;21.96;55.63;101542.78;6058030;23;20298;-81
2023/10/10 01:55:47;;;;;;;26.60;11.02;;;;;;;21.81;55.37;101521.19;6042455;23;20323;-81
2023/10/10 01:58:20;;;;;;;20.50;10.70;;;;;;;21.87;55.58;101528.56;6051464;23;20411;-81
2023/10/10 02:00:47;;;;;;;20.92;10.63;;;;;;;21.76;55.75;101510.09;6062794;23;20362;-80
2023/10/10 02:03:18;;;;;;;24.38;11.18;;;;;;;22.01;55.49;101534.94;6049694;23;20434;-80
2023/10/10 02:05:45;;;;;;;29.67;11.10;;;;;;;22.06;55.62;101543.31;6039268;23;20026;-81
2023/10/10 02:08:17;;;;;;;27.42;11.48;;;;;;;21.96;55.99;101540.91;6050822;23;20054;-80
2023/10/10 02:10:49;;;;;;;28.55;11.18;;;;;;;21.89;55.73;101531.06;6039010;23;20070;-81
2023/10/10 02:13:18;;;;;;;20.05;11.30;;;;;;;21.88;55.92;101532.09;6029656;23;20509;-80
2023/10/10 02:15:44;;;;;;;19.63;11.57;;;;;;;21.96;55.82;101543.63;6041222;23;20143;-81
2023/10/10 02:18:37;;;;;;;37.97;15.27;;;;;;;22.05;55.75;101551.66;6027118;23;20022;-80
2023/10/10 02:21:09;;;;;;;36.67;13.50;;;;;;;21.94;56.27;101545.69;6031244;23;20025;-80
2023/10/10 02:23:46;;;;;;;32.38;14.60;;;;;;;21.87;57.00;101546.63;6016285;23;20029;-82
2023/10/10 02:26:28;;;;;;;35.10;15.30;;;;;;;21.68;57.10;101526.44;5982597;23;20342;-82
2023/10/10 02:29:19;;;;;;;32.58;14.02;;;;;;;21.55;57.60;101519.81;5996389;23;20053;-81
2023/10/10 02:32:08;;;;;;;35.03;13.93;;;;;;;21.63;57.62;101539.66;6000012;23;20026;-81
2023/10/10 02:34:36;;;;;;;36.65;15.15;;;;;;;21.64;57.76;101549.44;5985621;23;20615;-80
2023/10/10 02:37:41;;;;;;;28.08;13.77;;;;;;;21.26;57.89;101498.16;6006095;23;20175;-81
2023/10/10 02:40:15;;;;;;;32.40;15.07;;;;;;;21.42;57.94;101525.03;6018257;23;20018;-81
2023/10/10 02:43:18;;;;;;;30.88;14.15;;;;;;;21.46;58.30;101536.31;6007641;23;20217;-81
2023/10/10 02:45:45;;;;;;;27.77;13.48;;;;;;;21.36;58.74;101531.16;6021907;23;20049;-82
2023/10/10 02:48:21;;;;;;;40.60;14.95;;;;;;;21.42;58.46;101553.91;6003469;23;20046;-80
2023/10/10 02:51:03;;;;;;;29.60;14.23;;;;;;;21.39;58.61;101562.34;6014095;23;20507;-80
2023/10/10 02:53:36;;;;;;;28.42;13.75;;;;;;;21.31;58.29;101547.91;6002467;23;20038;-80
2023/10/10 02:56:18;;;;;;;29.88;14.05;;;;;;;21.04;58.12;101489.09;5999756;23;20222;-80
2023/10/10 02:58:54;;;;;;;26.75;13.18;;;;;;;21.37;58.08;101545.50;5997495;23;20031;-81
2023/10/10 03:01:54;;;;;;;30.92;13.85;;;;;;;21.38;57.77;101556.09;6002237;23;20101;-81
2023/10/10 03:04:22;;;;;;;31.90;12.68;;;;;;;21.35;58.36;101556.47;6008238;23;20054;-79
2023/10/10 03:06:50;;;;;;;28.08;12.82;;;;;;;21.28;57.54;101558.22;6014679;23;20022;-80
2023/10/10 03:12:17;;;;;;;25.60;11.82;;;;;;;21.24;58.19;101538.88;6014590;23;20035;-80
2023/10/10 03:14:53;;;;;;;24.90;11.98;;;;;;;21.23;58.08;101547.13;5996537;23;20025;-81
2023/10/10 03:17:43;;;;;;;29.17;11.77;;;;;;;20.99;58.68;101518.50;5990912;23;20019;-80
2023/10/10 03:25:54;;;;;;;18.98;11.55;;;;;;;21.18;58.50;101555.78;6028506;23;20102;-77
2023/10/10 03:36:23;;;;;;;24.42;10.75;;;;;;;21.22;57.26;101532.81;6023747;23;20434;-78
2023/10/10 05:25:25;;;;;;;21.88;12.52;;;;;;;21.06;57.25;101571.56;6026204;23;20077;-79
2023/10/10 05:27:58;;;;;;;23.20;11.77;;;;;;;21.21;57.61;101613.97;6045579;23;20253;-79
2023/10/10 05:30:27;;;;;;;21.35;11.65;;;;;;;21.16;57.33;101611.00;6005737;23;20745;-80
2023/10/10 05:33:05;;;;;;;30.35;13.30;;;;;;;21.13;56.95;101607.63;6045557;23;20049;-80
2023/10/10 05:35:38;;;;;;;34.20;13.55;;;;;;;21.02;57.51;101583.78;6060592;23;20074;-79
2023/10/10 05:38:09;;;;;;;34.28;13.57;;;;;;;21.09;57.54;101600.94;6059796;23;20027;-81
2023/10/10 05:40:47;;;;;;;26.75;11.57;;;;;;;21.05;57.69;101604.16;6044496;23;20022;-79
2023/10/10 05:43:17;;;;;;;24.65;12.82;;;;;;;21.03;58.10;101617.00;6049538;23;20054;-79
2023/10/10 05:45:45;;;;;;;26.10;13.00;;;;;;;20.76;57.80;101572.50;6046998;23;20018;-79
2023/10/10 05:48:14;;;;;;;29.10;12.43;;;;;;;21.06;57.71;101620.16;6044602;23;20029;-80
2023/10/10 05:50:48;;;;;;;35.20;13.90;;;;;;;21.13;57.36;101623.81;6058406;23;20545;-79
2023/10/10 05:53:16;;;;;;;24.95;13.65;;;;;;;20.63;57.57;101546.09;6046570;23;20027;-79
2023/10/10 05:55:50;;;;;;;36.42;13.98;;;;;;;21.03;58.02;101623.25;6022519;23;20022;-77
2023/10/10 05:58:20;;;;;;;32.65;16.38;;;;;;;20.96;58.00;101630.38;6062840;23;20042;-79
2023/10/10 06:00:48;;;;;;;30.30;13.65;;;;;;;20.47;57.93;101557.84;6027776;23;20018;-79
2023/10/10 06:03:19;;;;;;;23.02;12.63;;;;;;;20.89;57.94;101615.91;6046219;23;20026;-78
2023/10/10 06:05:53;;;;;;;27.15;13.00;;;;;;;20.91;58.58;101619.28;6050445;23;20073;-77
2023/10/10 06:08:31;;;;;;;31.35;14.25;;;;;;;20.68;59.13;101603.06;6061101;23;20454;-77
2023/10/10 06:11:07;;;;;;;29.55;13.40;;;;;;;20.66;59.64;101611.34;6069571;23;20030;-78
2023/10/10 06:13:39;;;;;;;37.08;14.13;;;;;;;20.70;59.42;101615.38;6044224;23;20537;-79
2023/10/10 06:16:07;;;;;;;28.30;13.95;;;;;;;20.84;59.15;101607.53;6057157;23;20308;-79
2023/10/10 06:18:34;;;;;;;36.67;13.80;;;;;;;20.92;59.18;101624.50;6039443;23;20022;-78
2023/10/10 06:21:04;;;;;;;69.40;18.98;;;;;;;20.97;59.27;101626.69;6050448;23;20025;-79
2023/10/10 06:23:41;;;;;;;51.97;15.55;;;;;;;21.03;59.34;101634.03;6046913;23;20024;-80
2023/10/10 06:26:08;;;;;;;40.50;13.68;;;;;;;20.94;59.03;101612.69;6061580;23;20106;-79
2023/10/10 06:28:36;;;;;;;28.52;13.73;;;;;;;21.07;59.88;101638.06;6055450;23;20018;-79
2023/10/10 06:31:09;;;;;;;33.40;14.25;;;;;;;20.96;60.22;101624.97;6037255;23;20465;-79
2023/10/10 06:33:40;;;;;;;37.40;13.75;;;;;;;21.03;60.49;101642.13;6051407;23;20022;-79
2023/10/10 06:41:35;;;;;;;33.28;13.20;;;;;;;21.01;61.14;101630.66;6048862;23;20518;-78
2023/10/10 06:44:31;;;;;;;34.65;13.32;;;;;;;21.05;60.76;101632.00;6048858;23;20089;-79
2023/10/10 06:47:08;;;;;;;26.60;11.63;;;;;;;21.06;60.00;101616.63;6051860;23;20030;-79
2023/10/10 06:52:43;;;;;;;17.95;10.20;;;;;;;20.91;59.57;101571.53;6043546;23;20026;-78
2023/10/10 06:55:21;;;;;;;15.55;9.73;;;;;;;21.23;57.66;101588.47;6036500;23;20342;-79
2023/10/10 06:57:57;;;;;;;19.92;9.60;;;;;;;21.59;56.67;101622.13;6048391;23;20126;-77
2023/10/10 07:00:29;;;;;;;23.70;10.00;;;;;;;21.71;56.29;101628.75;6055433;23;20049;-79
2023/10/10 07:02:59;;;;;;;21.88;9.57;;;;;;;21.70;55.82;101627.91;6060385;23;20034;-79
2023/10/10 07:05:27;;;;;;;21.00;9.30;;;;;;;21.94;55.31;101648.44;6053922;23;20440;-79
2023/10/10 07:07:59;;;;;;;23.30;9.93;;;;;;;22.04;54.31;101641.88;6031804;23;20111;-79
2023/10/10 07:10:33;;;;;;;26.25;10.05;;;;;;;21.97;54.64;101623.72;6057003;23;20369;-77
2023/10/10 07:13:01;;;;;;;22.38;10.20;;;;;;;22.22;54.71;101660.47;6040618;23;20025;-77
2023/10/10 07:15:35;;;;;;;22.42;10.27;;;;;;;22.10;54.41;101635.75;6043872;23;20026;-77
2023/10/10 07:18:15;;;;;;;20.27;9.80;;;;;;;22.12;55.73;101644.50;6041074;23;20422;-77
2023/10/10 07:23:38;;;;;;;22.10;10.25;;;;;;;22.30;55.50;101658.50;6048803;23;20105;-77
2023/10/10 07:26:18;;;;;;;18.02;10.40;;;;;;;21.96;55.12;101594.16;6057055;23;20447;-76
2023/10/10 07:28:49;;;;;;;19.55;9.88;;;;;;;22.40;54.67;101648.25;6062948;23;20290;-78
2023/10/10 07:31:21;;;;;;;24.98;9.95;;;;;;;22.53;53.39;101674.63;6060135;23;20358;-79
2023/10/10 07:33:56;;;;;;;26.60;10.27;;;;;;;22.61;53.25;101665.53;6073192;23;20267;-76
2023/10/10 07:36:27;;;;;;;22.08;9.52;;;;;;;22.64;52.80;101661.63;6072025;23;20022;-79
2023/10/10 07:39:31;;;;;;;26.52;11.30;;;;;;;22.74;52.87;101664.84;6050919;23;20210;-77
2023/10/10 07:41:46;;;;;;;22.40;9.68;;;;;;;22.31;53.17;101603.38;6051544;23;20490;-77
2023/10/10 07:44:22;;;;;;;22.80;9.35;;;;;;;22.68;52.75;101655.63;6045555;23;20431;-77
2023/10/10 07:49:50;;;;;;;;;;;;;;;22.86;52.25;101670.59;6054930;23;20046;-78
2023/10/10 07:52:20;;;;;;;17.88;10.23;;;;;;;22.96;51.47;101668.41;6051820;23;19917;-79
2023/10/10 07:54:53;;;;;;;24.63;11.93;;;;;;;22.95;51.60;101672.16;6084024;23;20073;-80
2023/10/10 07:57:26;;;;;;;19.77;11.02;;;;;;;23.12;50.91;101665.50;6047309;23;20105;-79
2023/10/10 07:59:58;;;;;;;27.63;11.30;;;;;;;22.52;52.01;101599.03;6053771;23;20492;-77
2023/10/10 08:02:32;;;;;;;25.33;12.05;;;;;;;23.04;52.12;101671.06;6057817;23;20293;-77
2023/10/10 08:05:01;;;;;;;22.73;11.50;;;;;;;23.07;51.92;101673.38;6046539;23;20513;-78
2023/10/10 08:07:40;;;;;;;26.38;11.98;;;;;;;23.05;51.95;101672.72;6049786;23;20054;-80
2023/10/10 08:10:31;;;;;;;37.58;16.85;;;;;;;23.18;52.10;101672.88;6051848;23;20382;-79
2023/10/10 08:13:02;;;;;;;40.75;18.15;;;;;;;23.00;52.17;101646.22;6039977;23;20022;-80
2023/10/10 08:15:30;;;;;;;46.70;20.50;;;;;;;22.88;52.17;101617.13;6054711;23;20390;-79
2023/10/10 08:17:58;;;;;;;49.45;20.00;;;;;;;23.20;51.70;101662.66;6048959;23;20324;-80
2023/10/10 08:21:07;;;;;;;37.72;18.70;;;;;;;23.28;52.08;101671.66;6051339;23;20455;-77
2023/10/10 08:23:24;;;;;;;40.45;19.23;;;;;;;23.28;51.80;101655.41;6051399;23;20387;-79
2023/10/10 08:25:53;;;;;;;42.70;19.23;;;;;;;23.22;51.93;101657.88;6056362;23;20085;-80
2023/10/10 08:28:24;;;;;;;36.58;18.58;;;;;;;23.33;52.19;101674.66;6055596;23;20038;-79
2023/10/10 08:30:54;;;;;;;35.28;17.92;;;;;;;23.38;51.81;101674.91;6039813;23;20115;-80
2023/10/10 08:33:32;;;;;;;47.00;19.85;;;;;;;23.41;52.01;101667.22;6067203;23;20038;-79
2023/10/10 08:35:59;;;;;;;41.75;19.67;;;;;;;23.49;51.86;101673.53;6060573;23;20459;-80
2023/10/10 08:38:26;;;;;;;37.33;17.90;;;;;;;23.34;52.44;101649.25;6059423;23;20162;-80
2023/10/10 08:41:08;;;;;;;48.33;20.42;;;;;;;23.54;52.12;101665.66;6049784;23;20022;-80
2023/10/10 08:43:45;;;;;;;51.05;20.10;;;;;;;23.60;52.22;101651.31;6051139;23;20437;-80
2023/10/10 08:46:14;;;;;;;46.28;21.55;;;;;;;23.79;52.02;101669.63;6059525;23;20372;-79
2023/10/10 08:48:48;;;;;;;39.72;21.80;;;;;;;23.44;51.73;101601.78;6047419;23;20049;-78
2023/10/10 08:51:20;;;;;;;40.45;24.17;;;;;;;23.74;51.64;101619.75;6030341;23;20081;-78
2023/10/10 08:53:50;;;;;;;34.22;19.65;;;;;;;23.89;51.86;101631.31;6074959;23;20022;-78
2023/10/10 08:56:20;;;;;;;41.58;21.17;;;;;;;24.07;51.67;101650.59;6043868;23;20097;-79
2023/10/10 08:58:50;;;;;;;37.60;18.67;;;;;;;24.18;52.28;101660.06;6055544;23;20024;-79
2023/10/10 09:01:18;;;;;;;131.48;29.40;;;;;;;24.25;51.78;101632.97;6040699;23;20026;-79
2023/10/10 09:03:45;;;;;;;103.68;25.55;;;;;;;24.40;51.91;101639.09;6058206;23;20350;-79
2023/10/10 09:06:19;;;;;;;37.58;18.10;;;;;;;24.78;51.40;101664.91;6054025;23;20030;-79
2023/10/10 09:08:49;;;;;;;31.80;17.88;;;;;;;24.82;51.00;101653.44;6041354;23;20022;-77
2023/10/10 09:11:20;;;;;;;36.63;18.00;;;;;;;24.56;50.52;101599.06;6047692;23;20019;-79
2023/10/10 09:13:53;;;;;;;40.85;17.00;;;;;;;25.00;51.11;101658.28;6041340;23;20455;-78
2023/10/10 09:16:49;;;;;;;41.55;17.65;;;;;;;25.12;49.60;101653.06;6068062;23;20018;-78
2023/10/10 09:19:17;;;;;;;27.10;14.38;;;;;;;25.27;50.22;101661.91;6043180;23;20098;-78
2023/10/10 09:21:55;;;;;;;33.88;14.40;;;;;;;25.18;50.23;101625.09;6051900;23;20341;-79
2023/10/10 09:24:31;;;;;;;45.03;17.38;;;;;;;25.39;49.93;101640.38;6055777;23;20506;-79
2023/10/10 09:26:59;;;;;;;35.58;16.70;;;;;;;25.51;49.06;101635.13;6046503;23;20332;-77
2023/10/10 09:29:47;;;;;;;39.70;18.38;;;;;;;25.69;49.05;101642.63;6048376;23;20028;-80
2023/10/10 09:32:17;;;;;;;85.63;21.17;;;;;;;26.03;48.24;101665.22;6058504;23;20081;-80
2023/10/10 09:34:48;;;;;;;56.97;18.90;;;;;;;25.49;48.38;101558.41;6054348;23;20451;-78
2023/10/10 09:37:25;;;;;;;41.03;19.30;;;;;;;26.01;48.32;101630.88;6062469;23;20022;-79
2023/10/10 09:39:56;;;;;;;37.05;18.95;;;;;;;25.97;47.94;101623.34;6059948;23;20320;-80
2023/10/10 09:43:03;;;;;;;44.65;19.05;;;;;;;26.17;48.23;101645.91;6046440;23;20113;-79
2023/10/10 09:48:33;;;;;;;39.53;19.85;;;;;;;26.63;47.75;101661.22;6023676;23;20030;-80
2023/10/10 09:52:47;;;;;;;37.28;18.65;;;;;;;26.78;47.55;101649.22;6076595;23;20019;-79
2023/10/10 09:54:25;;;;;;;48.00;21.80;;;;;;;26.93;46.68;101649.72;6047703;23;20349;-79
2023/10/10 09:56:56;;;;;;;42.80;19.23;;;;;;;27.06;47.36;101663.28;6039435;23;20446;-78
2023/10/10 09:59:28;;;;;;;41.95;19.33;;;;;;;27.23;46.96;101649.94;6040662;23;20029;-78
2023/10/10 10:02:05;;;;;;;40.55;21.30;;;;;;;27.30;46.15;101640.88;6037524;23;20028;-79
2023/10/10 10:04:44;;;;;;;46.35;20.20;;;;;;;27.47;45.97;101650.19;6036371;23;20026;-78
2023/10/10 10:07:42;;;;;;;53.08;21.30;;;;;;;27.52;45.43;101646.78;6065351;23;20458;-79
2023/10/10 10:10:20;;;;;;;42.15;20.48;;;;;;;27.74;44.77;101649.91;6077209;23;20077;-78
2023/10/10 10:13:01;;;;;;;40.60;18.40;;;;;;;27.81;44.96;101642.50;6030990;23;20061;-79
2023/10/10 10:15:48;;;;;;;37.20;19.65;;;;;;;27.94;44.33;101636.94;6057158;23;20048;-79
2023/10/10 10:18:44;;;;;;;33.10;17.27;;;;;;;28.04;44.55;101639.16;6064666;23;20554;-79
2023/10/10 10:21:30;;;;;;;43.13;20.63;;;;;;;28.19;44.07;101646.94;6041827;23;20025;-80
2023/10/10 10:24:15;;;;;;;47.47;19.40;;;;;;;28.15;44.36;101619.25;6037070;23;20018;-79
2023/10/10 10:27:06;;;;;;;40.03;20.20;;;;;;;28.32;43.38;101620.28;6078773;23;20402;-80
2023/10/10 10:29:53;;;;;;;42.05;18.98;;;;;;;28.40;43.37;101610.13;6040264;23;20389;-79
2023/10/10 10:32:23;;;;;;;34.08;17.00;;;;;;;28.77;43.07;101638.22;6047444;23;20142;-79
2023/10/10 10:34:59;;;;;;;41.72;20.60;;;;;;;28.84;42.73;101640.88;6012705;23;20137;-76
2023/10/10 10:37:35;;;;;;;118.43;22.90;;;;;;;28.88;42.86;101639.31;6025190;23;20018;-91
2023/10/10 10:42:53;;;;;;;37.95;16.35;;;;;;;29.09;41.75;101636.06;6048440;23;20033;-92
2023/10/10 10:45:34;;;;;;;42.97;16.98;;;;;;;29.19;41.58;101622.66;6047024;23;20311;-91
2023/10/10 10:48:55;;;;;;;;;;;;;;;29.24;40.70;101621.13;6062539;23;20447;-90
2023/10/10 10:51:32;;;;;;;33.78;16.25;;;;;;;29.33;41.47;101619.69;6039819;23;20363;-91
2023/10/10 10:53:59;;;;;;;32.10;15.82;;;;;;;29.48;40.94;101617.31;6045142;23;20081;-90
2023/10/10 10:59:12;;;;;;;31.85;16.05;;;;;;;29.19;38.96;101521.47;6041274;23;20553;-90
2023/10/10 11:01:55;;;;;;;30.38;13.55;;;;;;;29.29;39.38;101533.72;6070593;23;20089;-91
2023/10/10 11:04:42;;;;;;;25.73;14.15;;;;;;;29.38;39.53;101529.56;6079374;23;20250;-92
2023/10/10 11:07:16;;;;;;;40.05;14.82;;;;;;;28.79;39.16;101411.19;6067041;23;20081;-91
2023/10/10 11:10:00;;;;;;;35.92;14.02;;;;;;;28.95;39.57;101432.31;6029207;23;20283;-90
2023/10/10 11:12:48;;;;;;;27.48;14.73;;;;;;;29.94;39.65;101588.25;6002120;23;20030;-91
2023/10/10 11:15:19;;;;;;;30.17;15.15;;;;;;;29.87;39.67;101582.09;5991030;23;20022;-90
2023/10/10 11:18:07;;;;;;;24.45;13.57;;;;;;;29.60;39.57;101560.69;6030325;23;20022;-90
2023/10/10 11:21:06;;;;;;;32.42;15.45;;;;;;;29.54;39.83;101567.13;6066345;23;20222;-91
2023/10/10 11:23:41;;;;;;;49.30;16.95;;;;;;;28.66;39.48;101445.88;6065616;23;20272;-91
2023/10/10 11:26:13;;;;;;;25.90;13.48;;;;;;;28.89;38.80;101499.72;6051499;23;20490;-90
2023/10/10 11:28:48;;;;;;;30.17;13.95;;;;;;;28.45;38.77;101444.56;6077367;23;20235;-80
2023/10/10 11:31:23;;;;;;;30.88;13.10;;;;;;;28.89;38.72;101553.53;6075623;23;20077;-80
2023/10/10 11:36:51;;;;;;;37.95;13.80;;;;;;;28.53;38.89;101539.78;6078813;23;20022;-79
2023/10/10 11:39:31;;;;;;;48.65;14.43;;;;;;;28.48;39.32;101542.41;6086880;23;20481;-79
2023/10/10 11:42:03;;;;;;;29.08;12.90;;;;;;;28.54;38.97;101546.09;6078815;23;20810;-79
2023/10/10 11:44:33;;;;;;;64.78;16.52;;;;;;;28.29;40.13;101525.19;6079905;23;20438;-80
2023/10/10 11:47:07;;;;;;;81.22;16.42;;;;;;;28.09;40.01;101495.47;6081603;23;20025;-80
2023/10/10 11:49:35;;;;;;;37.50;12.82;;;;;;;28.30;39.86;101536.94;6078885;23;20236;-79
2023/10/10 11:52:01;;;;;;;85.63;18.25;;;;;;;27.96;40.25;101489.34;6116703;23;20022;-78
2023/10/10 11:54:29;;;;;;;34.55;12.43;;;;;;;28.23;40.45;101530.75;6084020;23;20026;-79
2023/10/10 11:56:56;;;;;;;40.03;12.80;;;;;;;28.28;40.38;101536.38;6070525;23;20549;-80
2023/10/10 11:59:32;;;;;;;29.60;10.85;;;;;;;28.00;40.06;101498.75;6087368;23;20019;-79
2023/10/10 12:02:13;;;;;;;35.97;11.85;;;;;;;28.01;40.28;101522.22;6074434;23;20021;-80
2023/10/10 12:04:44;;;;;;;27.63;12.60;;;;;;;28.11;40.78;101526.09;6089916;23;20461;-78
2023/10/10 12:07:14;;;;;;;26.92;11.68;;;;;;;27.92;40.78;101506.19;6083062;23;20085;-79
2023/10/10 12:09:45;;;;;;;32.75;11.85;;;;;;;27.80;41.23;101478.00;6080535;23;20030;-79
2023/10/10 12:12:13;;;;;;;41.10;14.43;;;;;;;27.74;41.72;101470.72;6082513;23;20026;-80
2023/10/10 12:14:44;;;;;;;34.15;12.52;;;;;;;27.97;41.57;101508.22;6087811;23;20026;-80
2023/10/10 12:17:23;;;;;;;30.85;13.15;;;;;;;27.97;41.06;101518.31;6089469;23;20093;-79
2023/10/10 12:19:56;;;;;;;32.42;12.45;;;;;;;27.54;41.66;101454.59;6088622;23;20022;-79
2023/10/10 12:22:26;;;;;;;33.55;10.82;;;;;;;27.82;41.14;101505.91;6080790;23;20093;-80
2023/10/10 12:25:00;;;;;;;25.38;12.07;;;;;;;27.85;41.32;101510.91;6080069;23;20088;-80
2023/10/10 12:27:30;;;;;;;36.33;13.95;;;;;;;27.40;41.76;101440.28;6070386;23;20474;-80
2023/10/10 12:29:57;;;;;;;37.75;13.80;;;;;;;27.82;42.55;101499.59;6092540;23;20057;-79
2023/10/10 12:32:34;;;;;;;36.08;14.07;;;;;;;27.57;42.74;101469.66;6067491;23;20276;-80
2023/10/10 12:35:10;;;;;;;28.98;15.77;;;;;;;27.57;42.53;101469.66;6087472;23;20014;-80
2023/10/10 12:37:44;;;;;;;30.15;13.60;;;;;;;27.73;42.49;101507.25;6066131;23;20025;-80
2023/10/10 12:40:17;;;;;;;36.15;14.25;;;;;;;27.71;42.39;101510.19;6079737;23;20023;-81
2023/10/10 12:42:43;;;;;;;30.35;14.10;;;;;;;27.74;42.60;101499.88;6079840;23;20113;-80
2023/10/10 12:45:14;;;;;;;32.47;13.63;;;;;;;27.81;42.20;101498.75;6091370;23;20021;-81
2023/10/10 12:47:43;;;;;;;27.88;13.20;;;;;;;27.76;42.51;101484.97;6090687;23;20019;-79
2023/10/10 12:50:14;;;;;;;32.10;13.35;;;;;;;27.35;41.89;101412.88;6080129;23;20028;-80
2023/10/10 12:52:56;;;;;;;26.85;12.95;;;;;;;27.82;42.40;101489.53;6078667;23;20121;-80
2023/10/10 12:55:32;;;;;;;48.28;15.32;;;;;;;27.70;42.63;101458.59;6087483;23;20019;-78
2023/10/10 12:58:09;;;;;;;34.10;13.47;;;;;;;27.95;42.59;101482.25;6086687;23;20030;-79
2023/10/10 13:00:40;;;;;;;29.52;13.73;;;;;;;27.68;42.77;101461.56;6077054;23;20382;-81
2023/10/10 13:03:07;;;;;;;27.70;13.43;;;;;;;27.83;42.57;101490.38;6075646;23;20281;-80
2023/10/10 13:05:34;;;;;;;28.55;14.23;;;;;;;27.76;42.68;101482.22;6089432;23;20697;-80
2023/10/10 13:08:06;;;;;;;31.38;13.65;;;;;;;27.87;42.51;101481.50;6068840;23;20022;-81
2023/10/10 13:10:37;;;;;;;36.72;14.38;;;;;;;27.17;42.82;101367.38;6073775;23;20060;-81
2023/10/10 13:13:07;;;;;;;36.28;14.52;;;;;;;27.87;42.30;101481.50;6079331;23;20033;-80
2023/10/10 13:15:50;;;;;;;29.25;13.63;;;;;;;27.85;42.67;101483.63;6091641;23;20539;-81
2023/10/10 13:18:22;;;;;;;29.58;14.07;;;;;;;27.67;42.85;101459.03;6091479;23;20549;-80
2023/10/10 13:20:53;;;;;;;35.65;15.00;;;;;;;27.70;42.43;101453.97;6089654;23;20110;-81
2023/10/10 13:23:24;;;;;;;24.95;15.55;;;;;;;27.83;42.59;101474.00;6060515;23;20019;-80
2023/10/10 13:25:51;;;;;;;28.85;13.65;;;;;;;27.69;42.77;101451.47;6046223;23;20470;-79
2023/10/10 13:28:21;;;;;;;30.15;13.40;;;;;;;27.79;43.07;101461.84;6016725;23;20389;-80
2023/10/10 13:30:48;;;;;;;29.95;13.88;;;;;;;27.51;43.07;101418.78;6063481;23;20034;-80
2023/10/10 13:33:20;;;;;;;27.63;13.70;;;;;;;27.51;42.57;101416.06;6053894;23;20030;-78
2023/10/10 13:35:48;;;;;;;29.02;14.23;;;;;;;27.74;42.58;101451.63;6081295;23;20022;-78
2023/10/10 13:38:15;;;;;;;28.40;13.75;;;;;;;27.79;42.59;101462.66;6057720;23;20023;-80
2023/10/10 13:40:45;;;;;;;33.60;15.00;;;;;;;27.86;42.67;101452.53;6050403;23;20078;-80
2023/10/10 13:43:22;;;;;;;30.45;13.68;;;;;;;27.85;42.38;101459.06;6067185;23;20079;-80
2023/10/10 13:45:49;;;;;;;39.50;15.05;;;;;;;27.60;42.96;101422.84;6048171;23;20029;-80
2023/10/10 13:48:19;;;;;;;34.13;14.18;;;;;;;27.78;42.61;101450.09;6057847;23;20093;-80
2023/10/10 13:50:46;;;;;;;26.67;13.07;;;;;;;27.77;42.97;101453.91;6053479;23;20057;-80
2023/10/10 13:53:14;;;;;;;34.05;13.85;;;;;;;27.62;42.77;101428.91;6050608;23;20475;-79
2023/10/10 13:55:45;;;;;;;33.28;13.57;;;;;;;27.62;42.92;101427.03;6064459;23;20018;-80
2023/10/10 13:58:13;;;;;;;34.85;14.13;;;;;;;27.79;42.89;101440.84;6050441;23;20093;-79
2023/10/10 14:00:43;;;;;;;32.03;13.10;;;;;;;27.55;42.68;101407.19;6052901;23;20019;-77
2023/10/10 14:03:14;;;;;;;31.67;13.68;;;;;;;27.73;42.65;101440.94;6068551;23;20023;-79
2023/10/10 14:05:59;;;;;;;31.55;13.45;;;;;;;27.74;42.83;101437.16;6043432;23;20027;-79
2023/10/10 14:08:34;;;;;;;34.08;12.85;;;;;;;27.83;42.12;101447.53;6054989;23;20022;-80
2023/10/10 14:11:04;;;;;;;28.92;12.80;;;;;;;27.66;42.58;101430.13;6051810;23;20019;-78
2023/10/10 14:13:33;;;;;;;32.30;13.70;;;;;;;27.74;42.58;101437.97;6049423;23;20033;-79
2023/10/10 14:16:06;;;;;;;48.28;13.98;;;;;;;27.68;42.92;101439.72;6045755;23;20312;-80
2023/10/10 14:18:43;;;;;;;32.70;12.82;;;;;;;27.63;43.28;101428.69;6030190;23;20267;-79
2023/10/10 14:21:24;;;;;;;48.15;14.15;;;;;;;27.57;42.82;101424.13;6056966;23;20023;-79
2023/10/10 14:24:08;;;;;;;28.63;13.32;;;;;;;27.47;43.48;101404.75;6054765;23;20591;-79